createdAt,value
2019-01-18T00:00:39.569Z,66.50
2019-01-18T00:03:12.448Z,66.90
2019-01-18T00:05:45.907Z,66.30
2019-01-18T00:08:18.550Z,65.30
2019-01-18T00:10:51.169Z,65.20
2019-01-18T00:13:24.790Z,65.40
2019-01-18T00:15:57.648Z,64.50
2019-01-18T00:18:30.410Z,63.40
2019-01-18T00:21:03.569Z,63.20
2019-01-18T00:23:36.828Z,62.80
2019-01-18T00:26:09.949Z,63.40
2019-01-18T00:28:42.688Z,62.60
2019-01-18T00:31:15.288Z,62.90
2019-01-18T00:33:48.193Z,62.80
2019-01-18T00:36:20.288Z,62.50
2019-01-18T00:38:53.488Z,62.50
2019-01-18T00:41:26.248Z,63.10
2019-01-18T00:43:59.988Z,62.60
2019-01-18T00:46:33.576Z,62.30
2019-01-18T00:49:06.207Z,62.30
2019-01-18T00:51:38.487Z,62.40
2019-01-18T00:54:11.168Z,62.40
2019-01-18T00:56:43.748Z,63.20
2019-01-18T00:59:17.049Z,67.80
2019-01-18T01:01:49.868Z,69.70
2019-01-18T01:04:21.889Z,70.70
2019-01-18T01:06:54.507Z,71.10
2019-01-18T01:09:27.088Z,71.10
2019-01-18T01:12:00.028Z,70.80
2019-01-18T01:14:32.768Z,70.40
2019-01-18T01:17:06.390Z,71.80
2019-01-18T01:19:39.728Z,71.30
2019-01-18T01:22:12.428Z,72.20
2019-01-18T01:24:44.869Z,72.80
2019-01-18T01:27:17.229Z,72.80
2019-01-18T01:29:50.532Z,73.70
2019-01-18T01:32:23.348Z,74.20
2019-01-18T01:34:56.249Z,74.70
2019-01-18T01:37:28.947Z,75.40
2019-01-18T01:40:02.154Z,75.30
2019-01-18T01:42:34.688Z,75.80
2019-01-18T01:45:08.328Z,76.30
2019-01-18T01:47:40.789Z,76.60
2019-01-18T01:50:15.708Z,77.10
2019-01-18T01:52:47.687Z,77.40
2019-01-18T01:55:20.428Z,77.00
2019-01-18T01:57:52.708Z,76.30
2019-01-18T02:00:31.990Z,75.60
2019-01-18T02:03:04.468Z,75.00
2019-01-18T02:05:36.347Z,75.90
2019-01-18T02:08:09.407Z,75.60
2019-01-18T02:10:41.268Z,75.00
2019-01-18T02:13:14.549Z,74.90
2019-01-18T02:15:47.947Z,75.60
2019-01-18T02:18:21.367Z,75.30
2019-01-18T02:20:54.408Z,75.80
2019-01-18T02:23:28.268Z,76.10
2019-01-18T02:26:01.069Z,75.50
2019-01-18T02:28:33.190Z,75.30
2019-01-18T02:31:06.408Z,75.90
2019-01-18T02:33:39.309Z,76.30
2019-01-18T02:36:11.968Z,76.00
2019-01-18T02:38:44.308Z,76.10
2019-01-18T02:41:17.067Z,76.10
2019-01-18T02:43:49.888Z,76.40
2019-01-18T02:46:22.308Z,76.70
2019-01-18T02:48:55.528Z,76.70
2019-01-18T02:51:28.168Z,76.60
2019-01-18T02:54:01.908Z,76.80
2019-01-18T02:56:34.810Z,76.50
2019-01-18T02:59:08.128Z,77.00
2019-01-18T03:01:40.308Z,76.90
2019-01-18T03:04:13.108Z,76.40
2019-01-18T03:06:46.109Z,76.50
2019-01-18T03:09:18.325Z,76.60
2019-01-18T03:11:51.969Z,76.30
2019-01-18T03:14:26.129Z,76.30
2019-01-18T03:16:58.929Z,75.60
2019-01-18T03:19:31.349Z,75.70
2019-01-18T03:22:04.690Z,76.20
2019-01-18T03:24:37.428Z,75.80
2019-01-18T03:27:09.768Z,76.10
2019-01-18T03:29:42.397Z,76.10
2019-01-18T03:32:16.010Z,76.40
2019-01-18T03:34:49.609Z,76.40
2019-01-18T03:37:22.447Z,76.70
2019-01-18T03:39:55.090Z,76.90
2019-01-18T03:42:28.149Z,76.80
2019-01-18T03:45:00.453Z,76.80
2019-01-18T03:47:33.768Z,77.10
2019-01-18T03:50:06.156Z,77.00
2019-01-18T03:52:38.488Z,77.00
2019-01-18T03:55:12.330Z,77.00
2019-01-18T03:57:45.348Z,76.70
2019-01-18T04:00:25.785Z,76.80
2019-01-18T04:02:53.848Z,76.80
2019-01-18T04:05:26.687Z,76.80
2019-01-18T04:07:58.108Z,76.80
2019-01-18T04:10:31.069Z,76.90
2019-01-18T04:13:03.127Z,77.20
2019-01-18T04:15:35.229Z,77.00
2019-01-18T04:18:08.468Z,76.90
2019-01-18T04:20:40.609Z,77.10
2019-01-18T04:23:13.290Z,76.70
2019-01-18T04:25:45.992Z,75.40
2019-01-18T04:28:20.148Z,75.30
2019-01-18T04:30:52.690Z,73.80
2019-01-18T04:33:24.991Z,73.70
2019-01-18T04:35:57.290Z,73.90
2019-01-18T04:38:30.169Z,73.40
2019-01-18T04:41:02.709Z,73.40
2019-01-18T04:43:35.104Z,73.00
2019-01-18T04:46:07.208Z,72.60
2019-01-18T04:48:39.488Z,72.30
2019-01-18T04:51:11.413Z,72.40
2019-01-18T04:53:44.368Z,72.80
2019-01-18T04:56:17.670Z,72.40
2019-01-18T04:58:50.537Z,72.50
2019-01-18T05:01:22.848Z,71.90
2019-01-18T05:03:55.249Z,72.40
2019-01-18T05:06:27.788Z,71.80
2019-01-18T05:09:00.161Z,71.50
2019-01-18T05:11:32.688Z,72.20
2019-01-18T05:14:05.288Z,71.80
2019-01-18T05:16:38.309Z,71.70
2019-01-18T05:19:11.050Z,71.40
2019-01-18T05:21:44.348Z,71.80
2019-01-18T05:24:17.548Z,71.50
2019-01-18T05:26:50.708Z,71.90
2019-01-18T05:29:24.328Z,71.70
2019-01-18T05:31:56.908Z,73.10
2019-01-18T05:34:29.469Z,72.60
2019-01-18T05:37:02.248Z,73.00
2019-01-18T05:39:33.888Z,73.00
2019-01-18T05:42:06.712Z,72.50
2019-01-18T05:44:40.880Z,72.40
2019-01-18T05:47:13.649Z,73.00
2019-01-18T05:49:46.970Z,73.10
2019-01-18T05:52:20.028Z,73.20
2019-01-18T05:54:52.189Z,72.20
2019-01-18T05:57:25.189Z,71.80
2019-01-18T05:59:58.228Z,71.10
2019-01-18T06:02:30.709Z,71.70
2019-01-18T06:05:04.109Z,72.10
2019-01-18T06:07:37.028Z,72.00
2019-01-18T06:10:10.208Z,72.50
2019-01-18T06:12:42.988Z,71.70
2019-01-18T06:15:15.148Z,71.30
2019-01-18T06:17:47.369Z,70.00
2019-01-18T06:20:20.990Z,69.40
2019-01-18T06:22:53.569Z,68.90
2019-01-18T06:25:25.829Z,70.00
2019-01-18T06:27:58.112Z,69.40
2019-01-18T06:30:32.108Z,68.30
2019-01-18T06:33:04.608Z,64.50
2019-01-18T06:35:37.048Z,64.90
2019-01-18T06:38:09.588Z,64.70
2019-01-18T06:40:43.529Z,65.50
2019-01-18T06:43:16.133Z,64.70
2019-01-18T06:45:49.014Z,60.80
2019-01-18T06:48:25.114Z,63.50
2019-01-18T06:50:58.399Z,64.50
2019-01-18T06:53:31.094Z,65.40
2019-01-18T06:56:03.354Z,66.10
2019-01-18T06:58:35.696Z,63.80
2019-01-18T07:01:08.751Z,60.20
2019-01-18T07:03:41.677Z,61.20
2019-01-18T07:06:14.635Z,60.40
2019-01-18T07:08:46.834Z,60.90
2019-01-18T07:11:19.477Z,60.90
2019-01-18T07:13:52.095Z,58.80
2019-01-18T07:16:25.074Z,59.50
2019-01-18T07:18:57.074Z,64.60
2019-01-18T07:21:29.473Z,65.40
2019-01-18T07:24:02.815Z,67.00
2019-01-18T07:26:35.675Z,67.60
2019-01-18T07:29:07.679Z,67.20
2019-01-18T07:31:40.974Z,67.80
2019-01-18T07:34:15.234Z,68.30
2019-01-18T07:36:47.754Z,69.00
2019-01-18T07:39:22.416Z,69.00
2019-01-18T07:41:55.716Z,68.80
2019-01-18T07:44:28.534Z,66.10
2019-01-18T07:47:01.335Z,65.80
2019-01-18T07:49:33.735Z,66.20
2019-01-18T07:52:06.775Z,67.20
2019-01-18T07:54:39.717Z,65.90
2019-01-18T07:57:12.734Z,67.40
2019-01-18T07:59:46.083Z,66.80
2019-01-18T08:02:18.595Z,66.10
2019-01-18T08:04:50.955Z,65.30
2019-01-18T08:07:23.793Z,63.10
2019-01-18T08:09:56.235Z,61.30
2019-01-18T08:12:28.995Z,63.30
2019-01-18T08:15:01.534Z,63.10
2019-01-18T08:17:33.934Z,62.10
2019-01-18T08:20:06.873Z,61.70
2019-01-18T08:22:39.774Z,61.60
2019-01-18T08:25:13.273Z,60.40
2019-01-18T08:27:45.201Z,61.30
2019-01-18T08:30:23.141Z,62.30
2019-01-18T08:32:55.302Z,63.80
2019-01-18T08:35:28.325Z,64.20
2019-01-18T08:38:01.124Z,64.70
2019-01-18T08:40:42.502Z,63.30
2019-01-18T08:43:16.344Z,63.60
2019-01-18T08:45:59.701Z,63.50
2019-01-18T08:48:32.359Z,64.60
2019-01-18T08:51:04.740Z,65.30
2019-01-18T08:53:36.901Z,64.70
2019-01-18T08:56:11.007Z,65.00
2019-01-18T08:58:43.231Z,62.10
2019-01-18T09:01:15.671Z,62.30
2019-01-18T09:03:47.656Z,62.50
2019-01-18T09:06:19.723Z,61.30
2019-01-18T09:08:52.137Z,59.50
2019-01-18T09:11:25.380Z,61.50
2019-01-18T09:13:59.801Z,60.60
2019-01-18T09:16:30.658Z,60.50
2019-01-18T09:19:03.077Z,60.80
2019-01-18T09:21:35.657Z,60.40
2019-01-18T09:24:08.157Z,60.80
2019-01-18T09:26:39.937Z,59.30
2019-01-18T09:29:13.136Z,61.00
2019-01-18T09:31:45.258Z,59.00
2019-01-18T09:34:17.739Z,58.40
2019-01-18T09:36:51.399Z,59.50
2019-01-18T09:39:23.139Z,59.70
2019-01-18T09:41:55.739Z,58.80
2019-01-18T09:44:26.959Z,59.70
2019-01-18T09:46:59.181Z,59.00
2019-01-18T09:49:31.519Z,59.90
2019-01-18T09:52:03.582Z,59.70
2019-01-18T09:54:36.879Z,58.30
2019-01-18T09:57:09.801Z,56.10
2019-01-18T09:59:42.579Z,54.30
2019-01-18T10:02:16.381Z,56.60
2019-01-18T10:04:48.299Z,57.70
2019-01-18T10:07:20.141Z,57.20
2019-01-18T10:09:52.680Z,54.40
2019-01-18T10:12:24.893Z,54.20
2019-01-18T10:14:57.992Z,53.80
2019-01-18T10:17:30.653Z,52.90
2019-01-18T10:20:03.018Z,52.30
2019-01-18T10:22:34.836Z,51.10
2019-01-18T10:25:07.266Z,49.80
2019-01-18T10:27:39.425Z,50.00
2019-01-18T10:30:14.244Z,50.10
2019-01-18T10:32:46.684Z,48.90
2019-01-18T10:35:19.684Z,49.10
2019-01-18T10:37:51.945Z,50.00
2019-01-18T10:40:23.971Z,49.40
2019-01-18T10:42:56.587Z,46.10
2019-01-18T10:45:28.444Z,45.90
2019-01-18T10:48:03.563Z,45.80
2019-01-18T10:50:37.264Z,45.30
2019-01-18T10:53:09.463Z,42.60
2019-01-18T10:55:42.347Z,43.20
2019-01-18T10:58:14.967Z,43.30
2019-01-18T11:00:47.215Z,41.00
2019-01-18T11:03:19.155Z,39.70
2019-01-18T11:05:51.818Z,38.20
2019-01-18T11:08:23.615Z,37.70
2019-01-18T11:10:56.517Z,38.30
2019-01-18T11:13:29.336Z,38.40
2019-01-18T11:16:02.662Z,39.30
2019-01-18T11:18:35.016Z,39.70
2019-01-18T11:21:13.341Z,37.90
2019-01-18T11:23:45.855Z,37.40
2019-01-18T11:26:18.855Z,36.30
2019-01-18T11:28:51.236Z,39.10
2019-01-18T11:31:23.775Z,38.30
2019-01-18T11:33:56.595Z,38.00
2019-01-18T11:36:28.676Z,38.90
2019-01-18T11:39:00.973Z,37.90
2019-01-18T11:41:33.035Z,38.70
2019-01-18T11:44:06.195Z,40.60
2019-01-18T11:46:37.717Z,41.70
2019-01-18T11:49:09.555Z,40.80
2019-01-18T11:51:41.803Z,41.00
2019-01-18T11:54:14.527Z,41.10
2019-01-18T11:56:47.163Z,42.70
2019-01-18T11:59:19.764Z,43.20
2019-01-18T12:01:51.904Z,44.30
2019-01-18T12:04:25.564Z,44.10
2019-01-18T12:06:58.584Z,43.60
2019-01-18T12:09:31.024Z,44.60
2019-01-18T12:12:03.728Z,44.70
2019-01-18T12:14:36.298Z,42.60
2019-01-18T12:17:09.350Z,45.10
2019-01-18T12:19:41.709Z,44.60
2019-01-18T12:22:14.353Z,44.70
2019-01-18T12:24:47.053Z,46.30
2019-01-18T12:27:20.190Z,46.90
2019-01-18T12:29:51.749Z,47.00
2019-01-18T12:32:28.716Z,48.70
2019-01-18T12:34:58.062Z,47.60
2019-01-18T12:37:30.844Z,47.90
2019-01-18T12:40:02.901Z,48.20
2019-01-18T12:42:35.981Z,48.00
2019-01-18T12:45:10.717Z,47.10
2019-01-18T12:47:43.622Z,46.70
2019-01-18T12:50:19.681Z,48.70
2019-01-18T12:52:51.683Z,48.50
2019-01-18T12:55:24.181Z,48.00
2019-01-18T12:57:55.721Z,48.20
2019-01-18T13:00:28.284Z,49.00
2019-01-18T13:03:01.147Z,48.60
2019-01-18T13:05:36.383Z,47.90
2019-01-18T13:08:09.421Z,47.80
2019-01-18T13:10:41.242Z,47.50
2019-01-18T13:13:13.502Z,47.80
2019-01-18T13:16:11.942Z,47.30
2019-01-18T13:18:46.200Z,47.60
2019-01-18T13:21:18.898Z,46.80
2019-01-18T13:23:51.202Z,46.00
2019-01-18T13:26:23.059Z,46.20
2019-01-18T13:28:56.941Z,46.30
2019-01-18T13:31:29.461Z,46.50
2019-01-18T13:34:03.161Z,47.00
2019-01-18T13:36:35.521Z,45.60
2019-01-18T13:39:10.903Z,45.20
2019-01-18T13:41:44.102Z,46.30
2019-01-18T13:44:17.081Z,46.90
2019-01-18T13:46:49.623Z,46.30
2019-01-18T13:49:21.884Z,45.20
2019-01-18T13:51:55.243Z,45.60
2019-01-18T13:54:28.283Z,44.70
2019-01-18T13:57:00.000Z,42.80
2019-01-18T13:59:31.921Z,45.00
2019-01-18T14:02:04.443Z,47.30
2019-01-18T14:04:37.364Z,48.50
2019-01-18T14:07:09.881Z,49.00
2019-01-18T14:09:42.123Z,48.90
2019-01-18T14:12:15.021Z,49.70
2019-01-18T14:14:48.202Z,49.40
2019-01-18T14:17:21.422Z,48.90
2019-01-18T14:19:54.562Z,48.50
2019-01-18T14:22:27.162Z,49.50
2019-01-18T14:24:59.802Z,49.80
2019-01-18T14:27:32.283Z,50.00
2019-01-18T14:30:04.442Z,50.70
2019-01-18T14:32:37.141Z,50.20
2019-01-18T14:35:10.581Z,50.60
2019-01-18T14:37:42.939Z,49.40
2019-01-18T14:40:16.062Z,49.90
2019-01-18T14:42:49.263Z,48.90
2019-01-18T14:45:45.161Z,48.00
2019-01-18T14:48:17.962Z,45.70
2019-01-18T14:50:50.842Z,46.20
2019-01-18T14:53:23.201Z,45.80
2019-01-18T14:55:55.161Z,45.50
2019-01-18T14:58:28.561Z,45.90
2019-01-18T15:01:01.145Z,47.00
2019-01-18T15:03:33.661Z,47.30
2019-01-18T15:06:06.082Z,47.50
2019-01-18T15:08:38.684Z,47.90
2019-01-18T15:11:10.860Z,47.80
2019-01-18T15:13:43.963Z,47.50
2019-01-18T15:16:16.280Z,47.60
2019-01-18T15:18:49.201Z,49.10
2019-01-18T15:21:21.561Z,47.80
2019-01-18T15:23:54.384Z,47.90
2019-01-18T15:26:26.681Z,47.30
2019-01-18T15:28:58.842Z,47.40
2019-01-18T15:31:31.300Z,47.70
2019-01-18T15:34:04.140Z,48.50
2019-01-18T15:36:36.760Z,49.60
2019-01-18T15:39:13.539Z,49.20
2019-01-18T15:41:46.819Z,48.60
2019-01-18T15:44:19.588Z,48.20
2019-01-18T15:46:51.819Z,49.20
2019-01-18T15:49:25.000Z,48.50
2019-01-18T15:51:57.059Z,48.50
2019-01-18T15:54:29.500Z,48.90
2019-01-18T15:57:02.260Z,48.80
2019-01-18T15:59:34.739Z,49.40
2019-01-18T16:02:06.780Z,49.80
2019-01-18T16:04:39.980Z,50.20
2019-01-18T16:07:13.019Z,51.70
2019-01-18T16:09:47.441Z,50.50
2019-01-18T16:12:19.711Z,49.80
2019-01-18T16:14:52.792Z,49.40
2019-01-18T16:17:28.471Z,48.50
2019-01-18T16:20:00.292Z,49.10
2019-01-18T16:22:32.852Z,47.60
2019-01-18T16:25:05.933Z,47.50
2019-01-18T16:27:37.771Z,48.00
2019-01-18T16:30:12.892Z,48.70
2019-01-18T16:32:45.172Z,49.30
2019-01-18T16:35:19.651Z,48.90
2019-01-18T16:37:52.516Z,49.10
2019-01-18T16:40:30.072Z,48.10
2019-01-18T16:43:13.933Z,47.80
2019-01-18T16:45:45.997Z,48.50
2019-01-18T16:48:19.932Z,47.70
2019-01-18T16:50:51.403Z,46.30
2019-01-18T16:53:25.659Z,47.60
2019-01-18T16:55:57.155Z,47.90
2019-01-18T16:58:28.623Z,48.10
2019-01-18T17:01:01.744Z,48.20
2019-01-18T17:03:33.510Z,48.00
2019-01-18T17:06:04.869Z,48.00
2019-01-18T17:08:38.247Z,47.70
2019-01-18T17:11:12.667Z,46.90
2019-01-18T17:13:45.880Z,46.60
2019-01-18T17:16:17.437Z,46.60
2019-01-18T17:18:49.744Z,46.40
2019-01-18T17:21:21.867Z,47.10
2019-01-18T17:23:54.246Z,47.50
2019-01-18T17:26:26.925Z,47.50
2019-01-18T17:28:59.286Z,47.70
2019-01-18T17:31:32.307Z,47.60
2019-01-18T17:34:04.244Z,47.20
2019-01-18T17:36:52.141Z,46.60
2019-01-18T17:39:50.701Z,46.90
2019-01-18T17:43:02.321Z,47.30
2019-01-18T17:46:12.889Z,47.60
2019-01-18T17:49:38.651Z,48.00
2019-01-18T17:52:56.019Z,48.30
2019-01-18T17:55:39.063Z,48.90
2019-01-18T17:59:03.608Z,47.70
2019-01-18T18:02:09.439Z,48.40
2019-01-18T18:05:30.419Z,48.60
2019-01-18T18:08:29.581Z,49.10
2019-01-18T18:11:36.250Z,48.80
2019-01-18T18:14:29.580Z,47.30
2019-01-18T18:18:02.811Z,47.20
2019-01-18T18:21:28.891Z,48.70
2019-01-18T18:24:19.392Z,48.70
2019-01-18T18:27:15.065Z,48.90
2019-01-18T18:30:03.973Z,48.70
2019-01-18T18:33:04.191Z,48.80
2019-01-18T18:36:01.854Z,49.40
2019-01-18T18:39:00.292Z,47.60
2019-01-18T18:42:05.007Z,47.30
2019-01-18T18:45:10.609Z,47.70
2019-01-18T18:48:18.148Z,48.20
2019-01-18T18:51:27.567Z,48.70
2019-01-18T18:54:35.987Z,48.70
2019-01-18T18:57:52.591Z,48.20
2019-01-18T19:00:50.786Z,48.60
2019-01-18T19:04:03.773Z,49.20
2019-01-18T19:07:08.363Z,49.30
2019-01-18T19:10:14.484Z,49.60
2019-01-18T19:13:25.219Z,49.60
2019-01-18T19:16:37.200Z,50.20
2019-01-18T19:20:06.895Z,50.60
2019-01-18T19:23:12.480Z,50.60
2019-01-18T19:26:21.420Z,50.90
2019-01-18T19:29:35.719Z,51.20
2019-01-18T19:32:53.330Z,51.10
2019-01-18T19:35:44.139Z,51.50
2019-01-18T19:38:42.780Z,51.50
2019-01-18T19:41:41.221Z,51.30
2019-01-18T19:45:00.661Z,51.40
2019-01-18T19:47:40.121Z,53.60
2019-01-18T19:51:03.400Z,51.90
2019-01-18T19:54:18.479Z,50.80
2019-01-18T19:57:37.309Z,50.80
2019-01-18T20:00:54.461Z,50.60
2019-01-18T20:03:53.379Z,50.40
2019-01-18T20:07:04.156Z,50.30
2019-01-18T20:10:23.922Z,50.70
2019-01-18T20:13:42.821Z,50.70
2019-01-18T20:16:44.280Z,50.60
2019-01-18T20:20:02.684Z,50.90
2019-01-18T20:23:16.941Z,50.80
2019-01-18T20:26:01.139Z,50.80
2019-01-18T20:29:05.439Z,51.20
2019-01-18T20:32:13.600Z,51.60
2019-01-18T20:35:16.099Z,51.40
2019-01-18T20:38:46.800Z,51.80
2019-01-18T20:41:57.060Z,51.80
2019-01-18T20:44:51.961Z,51.80
2019-01-18T20:48:02.182Z,52.00
2019-01-18T20:51:00.140Z,52.00
2019-01-18T20:54:23.780Z,52.50
2019-01-18T20:57:39.080Z,53.00
2019-01-18T21:00:48.509Z,53.00
2019-01-18T21:03:42.381Z,52.90
2019-01-18T21:06:32.843Z,52.70
2019-01-18T21:09:50.045Z,52.80
2019-01-18T21:12:48.460Z,52.50
2019-01-18T21:16:06.600Z,52.80
2019-01-18T21:18:59.671Z,52.80
2019-01-18T21:22:23.935Z,53.20
2019-01-18T21:25:31.540Z,52.70
2019-01-18T21:28:47.119Z,52.40
2019-01-18T21:32:01.941Z,52.70
2019-01-18T21:35:02.169Z,53.10
2019-01-18T21:38:09.261Z,53.50
2019-01-18T21:41:19.280Z,53.40
2019-01-18T21:44:16.810Z,53.50
2019-01-18T21:47:12.499Z,53.40
2019-01-18T21:50:22.539Z,53.40
2019-01-18T21:53:47.389Z,53.10
2019-01-18T21:56:34.659Z,53.30
2019-01-18T21:59:52.607Z,53.60
2019-01-18T22:03:11.019Z,53.50
2019-01-18T22:06:21.239Z,53.60
2019-01-18T22:09:12.799Z,53.40
2019-01-18T22:12:13.239Z,53.40
2019-01-18T22:15:23.701Z,53.50
2019-01-18T22:18:42.379Z,54.10
2019-01-18T22:21:50.559Z,54.20
2019-01-18T22:25:11.479Z,54.30
2019-01-18T22:28:39.860Z,54.50
2019-01-18T22:31:50.580Z,54.40
2019-01-18T22:34:37.499Z,54.30
2019-01-18T22:37:31.898Z,53.40
2019-01-18T22:40:53.020Z,53.10
2019-01-18T22:44:03.321Z,53.10
2019-01-18T22:47:36.759Z,53.20
2019-01-18T22:50:32.459Z,53.90
2019-01-18T22:53:59.261Z,54.10
2019-01-18T22:56:46.098Z,54.20
2019-01-18T23:00:08.875Z,54.80
2019-01-18T23:03:26.795Z,55.20
2019-01-18T23:06:42.734Z,55.70
2019-01-18T23:09:56.435Z,56.40
2019-01-18T23:13:09.995Z,56.30
2019-01-18T23:16:13.015Z,56.40
2019-01-18T23:19:02.215Z,56.30
2019-01-18T23:22:25.276Z,56.20
2019-01-18T23:25:28.377Z,55.90
2019-01-18T23:28:30.055Z,55.10
2019-01-18T23:31:27.975Z,54.90
2019-01-18T23:34:40.156Z,55.10
2019-01-18T23:37:33.576Z,55.30
2019-01-18T23:40:31.576Z,55.40
2019-01-18T23:43:45.796Z,55.80
2019-01-18T23:46:39.575Z,55.50
2019-01-18T23:49:57.159Z,55.60
2019-01-18T23:52:47.295Z,55.00
2019-01-18T23:55:59.715Z,55.00
2019-01-18T23:58:54.115Z,55.20
